Time;durP1;ratioP1;P1;durP2;ratioP2;P2;SDS_P1;SDS_P2;PMS_P1;PMS_P2;Temp;Humidity;BMP_temperature;BMP_pressure;BME280_temperature;BME280_humidity;BME280_pressure;Samples;Min_cycle;Max_cycle;Signal;HPM_P1;HPM_P2
2022/10/26 00:02:17;;;;;;;5.20;2.33;;;;;;;15.45;100.00;100039.00;5091148;28;20036;-72
2022/10/26 00:04:43;;;;;;;5.85;3.00;;;;;;;15.43;100.00;100032.88;5091049;28;20088;-72
2022/10/26 00:07:08;;;;;;;4.32;3.08;;;;;;;15.44;100.00;100029.25;5091311;28;20031;-72
2022/10/26 00:09:33;;;;;;;7.43;3.13;;;;;;;15.44;100.00;100023.88;5091245;28;20419;-72
2022/10/26 00:11:59;;;;;;;7.95;3.03;;;;;;;15.46;100.00;100032.72;5090391;28;20031;-71
2022/10/26 00:14:25;;;;;;;5.47;2.95;;;;;;;15.46;100.00;100030.03;5090287;28;20035;-72
2022/10/26 00:16:50;;;;;;;7.38;3.20;;;;;;;15.46;100.00;100026.50;5090311;28;20028;-71
2022/10/26 00:19:16;;;;;;;5.25;2.90;;;;;;;15.47;100.00;100013.00;5090158;28;20364;-70
2022/10/26 00:21:41;;;;;;;9.45;3.40;;;;;;;15.31;100.00;100012.03;5089902;28;20035;-71
2022/10/26 00:24:07;;;;;;;5.45;3.45;;;;;;;15.26;100.00;100000.69;5090282;28;20024;-70
2022/10/26 00:26:32;;;;;;;6.43;3.35;;;;;;;15.24;100.00;100005.25;5090694;28;20039;-72
2022/10/26 00:28:58;;;;;;;4.65;2.45;;;;;;;15.19;100.00;100004.63;5091106;28;20035;-69
2022/10/26 00:31:24;;;;;;;8.05;2.70;;;;;;;15.14;100.00;100004.00;5090905;28;20051;-71
2022/10/26 00:33:54;;;;;;;6.15;2.50;;;;;;;15.09;100.00;100000.69;5090496;28;20052;-69
2022/10/26 00:36:20;;;;;;;5.60;2.95;;;;;;;15.09;100.00;99998.00;5091114;28;20043;-71
2022/10/26 00:38:50;;;;;;;8.32;2.85;;;;;;;15.08;100.00;99993.59;5090785;28;20036;-71
2022/10/26 00:41:18;;;;;;;8.35;3.30;;;;;;;15.10;100.00;99993.53;5090953;28;20027;-72
2022/10/26 00:43:44;;;;;;;6.07;2.95;;;;;;;15.16;100.00;100002.09;5090708;28;20034;-70
2022/10/26 00:46:23;;;;;;;11.50;3.08;;;;;;;15.19;100.00;100011.81;5092245;28;20035;-70
2022/10/26 00:49:25;;;;;;;8.38;2.72;;;;;;;15.16;100.00;100007.47;5091409;28;20020;-71
2022/10/26 00:51:52;;;;;;;15.27;5.53;;;;;;;15.17;100.00;100006.50;5087751;28;20458;-71
2022/10/26 00:54:19;;;;;;;8.25;3.10;;;;;;;15.17;100.00;100001.16;5090724;28;20028;-72
2022/10/26 00:56:50;;;;;;;7.45;3.03;;;;;;;15.20;100.00;99981.38;5090751;28;20083;-72
2022/10/26 00:59:16;;;;;;;5.90;3.03;;;;;;;15.18;100.00;99965.38;5090692;28;20024;-70
2022/10/26 01:01:46;;;;;;;8.88;2.60;;;;;;;15.20;100.00;99959.94;5085199;28;20024;-71
2022/10/26 01:04:13;;;;;;;7.35;3.08;;;;;;;15.18;100.00;99970.75;5083150;28;20039;-72
2022/10/26 01:06:40;;;;;;;7.40;3.47;;;;;;;15.17;100.00;99977.03;5090719;28;20070;-72
2022/10/26 01:09:05;;;;;;;13.02;2.92;;;;;;;15.17;100.00;99970.84;5093601;28;20020;-72
2022/10/26 01:11:31;;;;;;;5.93;3.30;;;;;;;15.13;100.00;99975.47;5094464;28;20031;-71
2022/10/26 01:14:00;;;;;;;5.78;3.00;;;;;;;15.08;100.00;99949.84;5094143;28;20028;-70
2022/10/26 01:16:50;;;;;;;6.70;2.80;;;;;;;15.14;100.00;99968.31;5094016;28;20020;-70
2022/10/26 01:19:54;;;;;;;7.28;3.25;;;;;;;15.09;100.00;99965.00;5093264;28;20055;-70
2022/10/26 01:22:23;;;;;;;5.82;2.33;;;;;;;15.03;100.00;99968.84;5094250;28;20371;-71
2022/10/26 01:25:11;;;;;;;6.95;2.97;;;;;;;14.98;100.00;99981.63;5094026;28;20032;-70
2022/10/26 01:27:43;;;;;;;7.47;2.53;;;;;;;14.96;100.00;99977.31;5094083;28;20478;-70
2022/10/26 01:30:21;;;;;;;6.57;2.65;;;;;;;14.86;100.00;99981.38;5094504;28;20024;-71
2022/10/26 01:33:23;;;;;;;4.70;2.30;;;;;;;14.81;100.00;99991.47;5094315;28;20406;-71
2022/10/26 01:36:12;;;;;;;7.30;2.63;;;;;;;14.75;100.00;100011.38;5094338;28;20081;-70
2022/10/26 01:38:59;;;;;;;7.97;3.17;;;;;;;14.73;100.00;100025.78;5094152;28;20237;-69
2022/10/26 01:41:29;;;;;;;6.80;3.28;;;;;;;14.64;100.00;100032.44;5092676;28;20518;-70
2022/10/26 01:44:02;;;;;;;5.38;2.70;;;;;;;14.58;100.00;100035.41;5094030;28;20077;-70
2022/10/26 01:46:32;;;;;;;8.10;2.75;;;;;;;14.53;100.00;100038.31;5093812;28;20032;-70
2022/10/26 01:49:04;;;;;;;7.22;2.83;;;;;;;14.52;100.00;100046.41;5093630;28;20028;-71
2022/10/26 01:51:31;;;;;;;5.63;2.55;;;;;;;14.48;100.00;100042.13;5073575;28;20047;-71
2022/10/26 01:53:57;;;;;;;8.93;3.15;;;;;;;14.43;100.00;100041.53;5073696;28;20099;-71
2022/10/26 01:56:26;;;;;;;7.88;2.88;;;;;;;14.43;100.00;100041.53;5073320;28;20131;-70
2022/10/26 01:59:19;;;;;;;6.97;2.60;;;;;;;14.43;100.00;100041.53;5073268;28;20036;-70
2022/10/26 02:01:47;;;;;;;5.33;2.70;;;;;;;14.48;100.00;100029.63;5073493;28;20082;-69
2022/10/26 02:04:34;;;;;;;8.05;3.03;;;;;;;14.54;100.00;100033.84;5086079;28;20043;-72
2022/10/26 02:07:30;;;;;;;4.32;2.40;;;;;;;14.51;100.00;100025.97;5093822;28;20667;-70
2022/10/26 02:10:05;;;;;;;5.50;2.75;;;;;;;14.52;100.00;100020.53;5092787;28;20377;-71
2022/10/26 02:12:39;;;;;;;5.07;2.30;;;;;;;14.58;100.00;100019.34;5093633;28;20158;-70
2022/10/26 02:15:22;;;;;;;5.65;3.35;;;;;;;14.64;100.00;100040.47;5093311;28;20483;-70
2022/10/26 02:17:53;;;;;;;5.95;2.72;;;;;;;14.64;100.00;100039.59;5093258;28;20028;-72
2022/10/26 02:20:47;;;;;;;10.77;2.83;;;;;;;14.69;100.00;100057.19;5092246;28;20089;-71
2022/10/26 02:23:15;;;;;;;6.05;2.78;;;;;;;14.68;100.00;100060.78;5090270;28;20077;-71
2022/10/26 02:25:46;;;;;;;6.28;3.13;;;;;;;14.70;100.00;100064.28;5093449;28;20028;-72
2022/10/26 02:28:18;;;;;;;8.25;4.00;;;;;;;14.74;100.00;100059.63;5093166;28;20491;-70
2022/10/26 02:30:46;;;;;;;4.75;2.58;;;;;;;14.80;100.00;100067.38;5093249;28;20157;-69
2022/10/26 02:33:14;;;;;;;6.38;3.20;;;;;;;14.82;100.00;100069.03;5093100;28;20055;-72
2022/10/26 02:35:42;;;;;;;4.47;3.08;;;;;;;14.85;100.00;100087.63;5093589;28;20034;-70
2022/10/26 02:38:11;;;;;;;7.15;3.70;;;;;;;14.82;100.00;100089.59;5092927;28;20024;-69
2022/10/26 02:40:37;;;;;;;8.38;3.63;;;;;;;14.83;100.00;100073.44;5092414;28;20028;-70
2022/10/26 02:43:10;;;;;;;10.07;3.80;;;;;;;14.87;100.00;100080.41;5092877;28;20187;-69
2022/10/26 02:45:45;;;;;;;5.55;3.35;;;;;;;14.84;100.00;100063.59;5092841;28;20039;-70
2022/10/26 02:48:11;;;;;;;6.57;3.58;;;;;;;14.79;100.00;100058.47;5092554;28;20039;-69
2022/10/26 02:50:58;;;;;;;8.02;3.40;;;;;;;14.82;100.00;100065.47;5092819;28;20024;-69
2022/10/26 02:53:32;;;;;;;8.52;3.22;;;;;;;14.84;100.00;100058.25;5092706;28;20027;-69
2022/10/26 02:56:04;;;;;;;6.03;3.20;;;;;;;14.78;100.00;100062.09;5092419;28;20077;-68
2022/10/26 02:58:36;;;;;;;7.97;3.92;;;;;;;14.84;100.00;100047.53;5092387;28;20024;-70
2022/10/26 03:01:01;;;;;;;8.80;3.97;;;;;;;14.85;100.00;100058.16;5092444;28;20026;-69
2022/10/26 03:03:27;;;;;;;5.32;3.25;;;;;;;14.87;100.00;100058.97;5092396;28;20023;-68
2022/10/26 03:05:52;;;;;;;6.38;3.28;;;;;;;14.91;100.00;100065.91;5092579;28;20502;-70
2022/10/26 03:08:18;;;;;;;6.53;4.07;;;;;;;14.92;100.00;100062.28;5092468;28;20032;-68
2022/10/26 03:10:44;;;;;;;7.82;3.90;;;;;;;14.91;100.00;100060.53;5092201;28;20047;-69
2022/10/26 03:13:11;;;;;;;7.95;3.50;;;;;;;14.94;100.00;100057.69;5091949;28;20039;-68
2022/10/26 03:15:37;;;;;;;6.18;4.05;;;;;;;14.94;100.00;100071.09;5091944;28;20032;-69
2022/10/26 03:18:03;;;;;;;6.78;3.50;;;;;;;14.92;100.00;100062.28;5068429;28;20044;-70
2022/10/26 03:20:28;;;;;;;7.50;3.55;;;;;;;14.92;100.00;100062.28;5071766;28;20033;-69
2022/10/26 03:22:55;;;;;;;11.80;3.80;;;;;;;14.94;100.00;100071.09;5071845;28;20034;-69
2022/10/26 03:25:22;;;;;;;5.53;3.40;;;;;;;14.92;100.00;100067.66;5072022;28;20471;-69
2022/10/26 03:27:55;;;;;;;7.28;4.35;;;;;;;14.85;100.00;100065.31;5071633;28;20609;-71
2022/10/26 03:30:21;;;;;;;6.65;4.72;;;;;;;14.87;100.00;100069.69;5071691;28;20445;-70
2022/10/26 03:32:46;;;;;;;7.18;3.90;;;;;;;14.89;100.00;100057.06;5071626;28;20107;-70
2022/10/26 03:35:12;;;;;;;8.07;3.78;;;;;;;14.90;100.00;100056.13;5071640;28;20395;-71
2022/10/26 03:37:37;;;;;;;7.88;4.18;;;;;;;14.95;100.00;100061.25;5077185;28;20027;-70
2022/10/26 03:40:03;;;;;;;8.38;4.60;;;;;;;15.03;100.00;100043.88;5091692;28;20038;-70
2022/10/26 03:42:32;;;;;;;7.10;4.35;;;;;;;14.98;100.00;100053.06;5086789;28;20053;-70
2022/10/26 03:44:58;;;;;;;18.00;6.38;;;;;;;14.95;100.00;100053.22;5079627;28;20099;-69
2022/10/26 03:47:23;;;;;;;11.38;4.70;;;;;;;15.00;100.00;100051.19;5091880;28;20450;-70
2022/10/26 03:49:48;;;;;;;16.60;5.20;;;;;;;15.00;100.00;100036.00;5091331;28;20020;-71
2022/10/26 03:52:14;;;;;;;6.07;4.22;;;;;;;15.05;100.00;100038.44;5091530;28;20030;-70
2022/10/26 03:54:39;;;;;;;8.50;4.53;;;;;;;15.07;100.00;100040.09;5091428;28;20020;-70
2022/10/26 03:57:05;;;;;;;9.27;4.25;;;;;;;15.07;100.00;100012.44;5091339;28;20056;-70
2022/10/26 03:59:30;;;;;;;13.73;4.75;;;;;;;15.07;100.00;99981.16;5091318;28;20444;-70
2022/10/26 04:01:57;;;;;;;7.63;3.50;;;;;;;15.07;100.00;99986.53;5090995;28;20060;-70
2022/10/26 04:04:22;;;;;;;5.35;3.78;;;;;;;15.04;100.00;100002.72;5090981;28;20024;-69
2022/10/26 04:06:47;;;;;;;8.68;3.47;;;;;;;15.01;100.00;100013.59;5089365;28;20137;-67
2022/10/26 04:09:13;;;;;;;5.60;3.08;;;;;;;15.02;100.00;100020.72;5089593;28;20378;-69
2022/10/26 04:11:38;;;;;;;9.65;3.42;;;;;;;15.02;100.00;100015.34;5089224;28;20028;-71
2022/10/26 04:14:04;;;;;;;7.55;3.33;;;;;;;15.03;100.00;100011.72;5089438;28;20032;-69
2022/10/26 04:16:29;;;;;;;6.60;2.97;;;;;;;15.03;100.00;100006.34;5089412;28;20020;-70
2022/10/26 04:18:54;;;;;;;5.53;3.08;;;;;;;15.03;100.00;100014.41;5089444;28;20016;-70
2022/10/26 04:21:20;;;;;;;6.40;3.22;;;;;;;15.04;100.00;100012.59;5090806;28;20031;-71
2022/10/26 04:23:45;;;;;;;6.63;3.70;;;;;;;15.05;100.00;100009.84;5091226;28;20032;-69
2022/10/26 04:26:11;;;;;;;7.28;3.72;;;;;;;15.05;100.00;100004.47;5091117;28;20031;-70
2022/10/26 04:28:36;;;;;;;8.32;4.82;;;;;;;15.05;100.00;100001.81;5091185;28;20028;-71
2022/10/26 04:31:01;;;;;;;7.72;3.53;;;;;;;15.07;100.00;100005.28;5091263;28;20455;-70
2022/10/26 04:33:27;;;;;;;5.60;3.38;;;;;;;15.09;100.00;100008.72;5091269;28;20034;-70
2022/10/26 04:35:58;;;;;;;7.90;3.55;;;;;;;15.11;100.00;100004.16;5091143;28;20020;-70
2022/10/26 04:38:23;;;;;;;6.05;3.75;;;;;;;15.10;100.00;100005.13;5090881;28;20035;-71
2022/10/26 04:40:50;;;;;;;5.45;3.42;;;;;;;15.09;100.00;100011.41;5090945;28;20032;-70
2022/10/26 04:43:15;;;;;;;12.23;4.50;;;;;;;15.13;100.00;100015.66;5092507;28;20039;-71
2022/10/26 04:45:40;;;;;;;8.15;3.45;;;;;;;15.12;100.00;100010.38;5095089;28;20028;-71
2022/10/26 04:48:09;;;;;;;11.45;3.42;;;;;;;15.09;100.00;100016.75;5095365;28;20453;-71
2022/10/26 04:50:35;;;;;;;6.25;3.25;;;;;;;15.10;100.00;100026.53;5095141;28;20055;-71
2022/10/26 04:53:01;;;;;;;5.88;2.67;;;;;;;15.11;100.00;100028.28;5094961;28;20081;-71
2022/10/26 04:55:26;;;;;;;6.32;2.90;;;;;;;15.07;100.00;100018.66;5095036;28;20032;-71
2022/10/26 04:57:53;;;;;;;7.35;3.72;;;;;;;15.07;100.00;100029.38;5094818;28;20130;-70
2022/10/26 05:00:18;;;;;;;5.53;3.00;;;;;;;15.13;100.00;100038.91;5094877;28;20052;-70
2022/10/26 05:02:44;;;;;;;9.57;3.38;;;;;;;15.15;100.00;100037.91;5094684;28;20106;-71
2022/10/26 05:05:09;;;;;;;9.30;2.67;;;;;;;15.14;100.00;100046.88;5094884;28;20479;-70
2022/10/26 05:07:34;;;;;;;4.75;2.95;;;;;;;15.19;100.00;100044.81;5094357;28;20378;-70
2022/10/26 05:10:00;;;;;;;8.05;3.30;;;;;;;15.19;100.00;100039.47;5094567;28;20024;-70
2022/10/26 05:12:25;;;;;;;5.90;2.70;;;;;;;15.20;100.00;100054.59;5094649;28;20074;-70
2022/10/26 05:14:51;;;;;;;7.40;2.97;;;;;;;15.23;100.00;100061.59;5094608;28;20023;-71
2022/10/26 05:17:16;;;;;;;4.93;3.22;;;;;;;15.20;100.00;100051.06;5094675;28;20024;-70
2022/10/26 05:19:42;;;;;;;8.02;3.97;;;;;;;15.22;100.00;100052.69;5094411;28;20107;-70
2022/10/26 05:22:07;;;;;;;8.43;3.92;;;;;;;15.23;100.00;100062.50;5094600;28;20027;-69
2022/10/26 05:24:33;;;;;;;7.38;3.50;;;;;;;15.25;100.00;100071.31;5094382;28;20028;-71
2022/10/26 05:26:58;;;;;;;6.88;3.35;;;;;;;15.24;100.00;100079.41;5094448;28;20383;-70
2022/10/26 05:29:24;;;;;;;9.85;3.28;;;;;;;15.25;100.00;100087.41;5094331;28;20024;-71
2022/10/26 05:31:50;;;;;;;7.80;3.20;;;;;;;15.25;100.00;100095.44;5094254;28;20421;-70
2022/10/26 05:34:15;;;;;;;6.22;2.58;;;;;;;15.28;100.00;100092.59;5094380;28;20031;-71
2022/10/26 05:36:41;;;;;;;4.82;2.03;;;;;;;15.29;100.00;100099.69;5094098;28;20031;-71
2022/10/26 05:39:06;;;;;;;4.88;2.60;;;;;;;15.29;100.00;100110.41;5075339;28;20468;-71
2022/10/26 05:41:31;;;;;;;6.10;3.78;;;;;;;15.22;100.00;100106.28;5094192;28;20032;-70
2022/10/26 05:43:57;;;;;;;8.18;3.67;;;;;;;15.21;100.00;100112.59;5094099;28;20035;-70
2022/10/26 05:46:22;;;;;;;17.67;4.03;;;;;;;15.25;100.00;100111.53;5093959;28;20027;-71
2022/10/26 05:48:48;;;;;;;8.07;4.28;;;;;;;15.27;100.00;100112.28;5094189;28;20024;-70
2022/10/26 05:51:13;;;;;;;9.02;2.60;;;;;;;15.31;100.00;100116.56;5093130;28;20028;-71
2022/10/26 05:53:39;;;;;;;7.38;2.55;;;;;;;15.35;100.00;100125.31;5092908;28;20103;-71
2022/10/26 05:56:18;;;;;;;4.03;2.03;;;;;;;15.37;100.00;100118.91;5092937;28;20048;-71
2022/10/26 05:58:44;;;;;;;6.03;1.80;;;;;;;15.41;100.00;100125.03;5093930;28;20085;-69
2022/10/26 06:01:45;;;;;;;2.65;1.75;;;;;;;15.42;100.00;100111.56;5093353;28;20194;-71
2022/10/26 06:04:25;;;;;;;22.88;2.80;;;;;;;15.41;100.00;100114.31;5093547;28;20750;-71
2022/10/26 06:06:54;;;;;;;6.40;2.35;;;;;;;15.48;100.00;100121.09;5093745;28;20677;-68
2022/10/26 06:09:20;;;;;;;5.45;2.20;;;;;;;15.52;100.00;100128.03;5093209;28;20016;-71
2022/10/26 06:11:46;;;;;;;5.38;2.13;;;;;;;15.53;100.00;100129.78;5093575;28;20031;-70
2022/10/26 06:14:12;;;;;;;10.65;2.42;;;;;;;15.57;100.00;100132.22;5093586;28;20028;-70
2022/10/26 06:16:45;;;;;;;4.97;2.30;;;;;;;15.55;100.00;100135.94;5093275;28;20483;-70
2022/10/26 06:19:35;;;;;;;3.42;2.10;;;;;;;15.54;100.00;100136.88;5093361;28;20020;-71
2022/10/26 06:22:24;;;;;;;4.70;2.13;;;;;;;15.55;100.00;100139.47;5093471;28;20028;-71
2022/10/26 06:24:55;;;;;;;5.60;2.53;;;;;;;15.56;100.00;100133.19;5093000;28;20115;-70
2022/10/26 06:28:07;;;;;;;4.45;2.40;;;;;;;15.60;100.00;100141.94;5093281;28;20089;-70
2022/10/26 06:30:32;;;;;;;6.00;2.47;;;;;;;15.59;100.00;100145.56;5030464;28;20034;-70
2022/10/26 06:33:00;;;;;;;5.70;2.95;;;;;;;15.60;100.00;100152.66;5079636;28;20043;-70
2022/10/26 06:35:40;;;;;;;8.98;3.65;;;;;;;15.64;100.00;100160.47;5092946;28;20032;-70
2022/10/26 06:38:11;;;;;;;14.48;3.30;;;;;;;15.68;100.00;100162.03;5093126;28;20040;-70
2022/10/26 06:40:39;;;;;;;6.07;3.53;;;;;;;15.67;100.00;100154.94;5093042;28;20032;-71
2022/10/26 06:43:12;;;;;;;5.72;3.10;;;;;;;15.71;100.00;100164.59;5092886;28;20085;-70
2022/10/26 06:45:44;;;;;;;6.25;2.85;;;;;;;15.71;100.00;100167.28;5092557;28;20425;-71
2022/10/26 06:48:15;;;;;;;6.95;3.05;;;;;;;15.71;100.00;100161.91;5092772;28;20031;-70
2022/10/26 06:50:51;;;;;;;7.38;3.65;;;;;;;15.74;100.00;100167.09;5092578;28;20413;-69
2022/10/26 06:53:31;;;;;;;7.97;2.90;;;;;;;15.77;100.00;100168.75;5090758;28;20027;-71
2022/10/26 06:55:58;;;;;;;4.78;2.92;;;;;;;15.80;100.00;100173.94;5092344;28;20119;-69
2022/10/26 06:58:28;;;;;;;4.32;2.60;;;;;;;15.80;100.00;100174.81;5092369;28;20052;-70
2022/10/26 07:00:55;;;;;;;4.97;2.30;;;;;;;15.89;100.00;100173.50;5092501;28;20044;-71
2022/10/26 07:03:21;;;;;;;4.53;2.80;;;;;;;15.93;100.00;100169.69;5091088;28;20024;-69
2022/10/26 07:05:47;;;;;;;4.30;2.20;;;;;;;16.00;100.00;100181.84;5092029;28;20122;-70
2022/10/26 07:08:12;;;;;;;5.88;2.38;;;;;;;16.10;100.00;100179.53;5086688;28;20111;-70
2022/10/26 07:10:38;;;;;;;3.83;2.13;;;;;;;16.12;100.00;100180.34;5081227;28;20433;-70
2022/10/26 07:13:05;;;;;;;4.88;2.28;;;;;;;16.19;100.00;100188.00;5083709;28;20103;-70
2022/10/26 07:15:31;;;;;;;5.22;2.45;;;;;;;16.26;100.00;100180.50;5084052;28;20084;-71
2022/10/26 07:17:56;;;;;;;11.65;4.72;;;;;;;16.31;100.00;100186.50;5085854;28;20391;-71
2022/10/26 07:20:22;;;;;;;8.63;2.40;;;;;;;16.35;100.00;100188.91;5077041;28;20035;-70
2022/10/26 07:22:52;;;;;;;4.82;2.40;;;;;;;16.46;100.00;100191.91;5084138;28;20500;-71
2022/10/26 07:25:18;;;;;;;5.63;2.78;;;;;;;16.53;100.00;100196.03;5087207;28;20127;-71
2022/10/26 07:27:43;;;;;;;4.82;1.98;;;;;;;16.64;100.00;100190.03;5078127;28;20020;-71
2022/10/26 07:30:09;;;;;;;5.00;2.15;;;;;;;16.85;100.00;100196.97;5079898;28;20024;-71
2022/10/26 07:32:35;;;;;;;4.97;3.22;;;;;;;17.36;100.00;100203.91;5080958;28;20409;-71
2022/10/26 07:35:00;;;;;;;6.00;2.45;;;;;;;17.96;100.00;100206.59;5075666;28;20120;-70
2022/10/26 07:37:26;;;;;;;3.38;1.85;;;;;;;17.89;100.00;100217.84;5081192;28;20086;-70
2022/10/26 07:39:51;;;;;;;4.30;2.05;;;;;;;17.80;100.00;100221.94;5075819;28;20023;-72
2022/10/26 07:42:17;;;;;;;6.15;2.17;;;;;;;17.68;100.00;100232.53;5083794;28;20373;-71
2022/10/26 07:44:42;;;;;;;4.88;1.77;;;;;;;17.60;100.00;100241.06;5077013;28;20024;-70
2022/10/26 07:47:07;;;;;;;7.30;2.65;;;;;;;17.54;100.00;100238.72;5076309;28;20089;-70
2022/10/26 07:49:33;;;;;;;8.50;2.78;;;;;;;17.44;100.00;100240.16;5081834;28;20028;-71
2022/10/26 07:51:59;;;;;;;9.43;2.67;;;;;;;17.40;100.00;100249.34;5077457;28;20099;-71
2022/10/26 07:54:24;;;;;;;6.90;2.17;;;;;;;17.40;100.00;100254.72;5089527;28;20088;-71
2022/10/26 07:56:50;;;;;;;9.82;3.10;;;;;;;17.44;100.00;100250.91;5079653;28;20051;-68
2022/10/26 07:59:16;;;;;;;5.20;3.08;;;;;;;17.43;100.00;100254.53;5075304;28;20029;-67
2022/10/26 08:01:42;;;;;;;7.35;2.40;;;;;;;17.46;100.00;100265.16;5078153;28;20032;-72
2022/10/26 08:04:07;;;;;;;7.40;2.60;;;;;;;17.50;100.00;100269.44;5078425;28;20333;-72
2022/10/26 08:06:33;;;;;;;7.35;2.63;;;;;;;17.50;100.00;100268.53;5089683;28;20028;-70
2022/10/26 08:08:58;;;;;;;3.83;2.00;;;;;;;17.50;100.00;100273.94;5086681;28;20040;-71
2022/10/26 08:11:24;;;;;;;7.25;2.40;;;;;;;17.52;100.00;100274.72;5079563;28;20032;-71
2022/10/26 08:13:53;;;;;;;6.38;1.77;;;;;;;17.56;100.00;100284.34;5091362;28;20428;-71
2022/10/26 08:16:19;;;;;;;5.35;1.80;;;;;;;17.55;100.00;100280.78;5081987;28;20039;-71
2022/10/26 08:18:49;;;;;;;4.90;2.83;;;;;;;17.61;100.00;100280.44;5077150;28;20028;-71
2022/10/26 08:21:14;;;;;;;3.63;2.17;;;;;;;17.73;100.00;100278.88;5081619;28;20028;-71
2022/10/26 08:23:40;;;;;;;8.00;2.03;;;;;;;17.81;100.00;100276.59;5073712;28;20035;-69
2022/10/26 08:26:06;;;;;;;5.75;2.20;;;;;;;17.89;100.00;100280.56;5079336;28;20028;-72
2022/10/26 08:28:32;;;;;;;5.93;2.22;;;;;;;17.99;100.00;100272.88;5076821;28;20414;-71
2022/10/26 08:30:58;;;;;;;5.15;2.13;;;;;;;18.12;100.00;100282.78;5074021;28;20033;-71
2022/10/26 08:33:24;;;;;;;9.90;2.92;;;;;;;18.25;100.00;100283.78;5082675;28;20120;-67
2022/10/26 08:35:55;;;;;;;7.63;2.55;;;;;;;18.31;100.00;100278.06;5076251;28;20036;-72
2022/10/26 08:38:20;;;;;;;5.78;2.05;;;;;;;18.41;100.00;100294.56;5076971;28;20024;-71
2022/10/26 08:40:46;;;;;;;4.65;2.05;;;;;;;18.36;100.00;100286.72;5085439;28;20021;-73
2022/10/26 08:43:55;;;;;;;7.40;2.15;;;;;;;18.43;100.00;100286.38;5087527;28;20067;-73
2022/10/26 08:46:26;;;;;;;5.55;2.78;;;;;;;18.53;100.00;100280.38;5024386;28;20154;-72
2022/10/26 08:48:57;;;;;;;4.72;2.13;;;;;;;19.59;100.00;100282.56;5068436;28;20467;-72
2022/10/26 08:51:29;;;;;;;7.43;2.47;;;;;;;20.29;94.52;100293.16;5075915;28;20542;-72
2022/10/26 08:54:04;;;;;;;5.95;2.40;;;;;;;20.27;90.84;100292.41;5079441;28;20051;-71
2022/10/26 08:56:42;;;;;;;5.75;1.95;;;;;;;20.04;89.71;100295.75;5075680;28;20057;-72
2022/10/26 08:59:28;;;;;;;4.43;2.00;;;;;;;19.86;90.25;100296.09;5077074;28;20028;-71
2022/10/26 09:01:53;;;;;;;7.20;1.92;;;;;;;19.71;91.56;100294.41;5082074;28;20092;-71
2022/10/26 09:04:24;;;;;;;5.07;2.03;;;;;;;19.51;91.57;100301.09;5084761;28;20036;-71
2022/10/26 09:06:56;;;;;;;4.50;1.90;;;;;;;19.32;92.60;100305.94;5077181;28;20036;-72
2022/10/26 09:09:37;;;;;;;6.13;2.15;;;;;;;19.23;94.07;100311.88;5075259;28;20383;-71
2022/10/26 09:12:28;;;;;;;5.25;2.63;;;;;;;19.14;94.79;100315.19;5081874;28;20032;-72
2022/10/26 09:15:17;;;;;;;3.67;1.75;;;;;;;19.05;96.51;100315.72;5076496;28;20043;-70
2022/10/26 09:18:02;;;;;;;3.53;1.60;;;;;;;19.04;96.80;100327.50;5074611;28;20555;-72
2022/10/26 09:21:01;;;;;;;5.20;2.47;;;;;;;18.99;98.06;100318.81;5074583;28;20159;-72
2022/10/26 09:24:06;;;;;;;4.25;2.05;;;;;;;18.97;98.25;100327.00;5073556;28;20035;-72
2022/10/26 09:27:03;;;;;;;9.40;3.03;;;;;;;19.02;99.03;100329.41;5082419;28;20055;-73
2022/10/26 09:29:39;;;;;;;4.88;2.13;;;;;;;19.09;98.28;100328.06;5077508;28;20047;-72
2022/10/26 09:32:18;;;;;;;4.90;1.77;;;;;;;19.15;98.78;100330.38;5078783;28;20119;-70
2022/10/26 09:34:51;;;;;;;40.25;5.90;;;;;;;19.29;98.28;100343.91;5080027;28;20039;-71
2022/10/26 09:37:27;;;;;;;8.63;1.88;;;;;;;19.31;95.86;100341.97;5081800;28;20088;-72
2022/10/26 09:40:07;;;;;;;3.75;1.90;;;;;;;19.45;94.73;100342.84;5083553;28;20372;-71
2022/10/26 09:42:40;;;;;;;8.57;1.77;;;;;;;19.80;94.67;100340.59;5078533;28;20059;-71
2022/10/26 09:45:32;;;;;;;5.45;1.88;;;;;;;20.11;92.95;100348.41;5077349;28;20105;-69
2022/10/26 09:48:09;;;;;;;3.30;1.67;;;;;;;20.23;90.69;100349.44;5076966;28;20037;-72
2022/10/26 09:50:37;;;;;;;6.68;1.85;;;;;;;20.26;89.98;100354.66;5082520;28;20020;-72
2022/10/26 09:53:03;;;;;;;6.93;2.13;;;;;;;20.20;89.91;100353.22;5086519;28;20073;-71
2022/10/26 09:55:30;;;;;;;5.50;1.98;;;;;;;20.23;90.01;100355.69;5086780;28;20032;-72
2022/10/26 09:58:00;;;;;;;4.50;2.05;;;;;;;20.35;90.53;100360.28;5083048;28;20040;-70
2022/10/26 10:00:27;;;;;;;5.95;2.22;;;;;;;20.46;88.91;100367.69;5080161;28;20029;-70
2022/10/26 10:02:55;;;;;;;5.60;1.80;;;;;;;20.53;89.00;100371.69;5082615;28;20016;-71
2022/10/26 10:05:31;;;;;;;3.92;1.40;;;;;;;20.51;87.90;100377.19;5075118;28;20024;-71
2022/10/26 10:08:19;;;;;;;6.90;3.05;;;;;;;20.63;87.99;100380.91;5076656;28;20024;-69
2022/10/26 10:10:58;;;;;;;6.32;2.35;;;;;;;20.78;88.38;100388.84;5083266;28;20024;-71
2022/10/26 10:13:27;;;;;;;4.22;2.10;;;;;;;21.22;88.25;100384.94;5079653;28;20075;-70
2022/10/26 10:15:54;;;;;;;4.95;1.80;;;;;;;21.79;85.43;100389.81;5078429;28;20055;-70
2022/10/26 10:18:22;;;;;;;6.18;1.67;;;;;;;22.15;82.03;100378.09;5078548;28;20024;-73
2022/10/26 10:20:54;;;;;;;6.13;2.30;;;;;;;22.44;78.34;100381.34;5077990;28;20032;-69
2022/10/26 10:23:34;;;;;;;5.80;1.80;;;;;;;22.58;76.96;100394.75;5079315;28;20372;-71
2022/10/26 10:26:02;;;;;;;7.43;2.63;;;;;;;22.57;75.87;100385.72;5077373;28;20493;-72
2022/10/26 10:28:28;;;;;;;6.90;1.77;;;;;;;22.50;76.16;100389.88;5078690;28;20028;-71
2022/10/26 10:31:02;;;;;;;7.18;2.05;;;;;;;22.48;77.06;100381.00;5080238;28;20036;-69
2022/10/26 10:33:33;;;;;;;7.60;2.15;;;;;;;22.60;76.31;100392.78;5077663;28;20028;-71
2022/10/26 10:35:59;;;;;;;7.60;2.20;;;;;;;23.22;75.44;100384.22;5074675;28;20027;-71
2022/10/26 10:38:25;;;;;;;7.95;2.10;;;;;;;24.47;73.96;100402.97;5075202;28;20043;-70
2022/10/26 10:40:54;;;;;;;9.57;2.00;;;;;;;25.52;68.87;100415.63;5074370;28;20027;-71
2022/10/26 10:43:20;;;;;;;5.47;1.40;;;;;;;25.88;64.24;100412.34;5076634;28;20927;-70
2022/10/26 10:45:48;;;;;;;3.83;1.30;;;;;;;25.49;64.71;100413.16;5078421;28;20031;-71
2022/10/26 10:48:19;;;;;;;6.80;1.90;;;;;;;24.89;64.77;100423.91;5075637;28;20032;-69
2022/10/26 10:50:58;;;;;;;5.55;1.40;;;;;;;24.16;65.86;100431.88;5080779;28;20060;-71
2022/10/26 10:53:26;;;;;;;6.55;2.03;;;;;;;23.65;68.72;100416.16;5079002;28;20102;-69
2022/10/26 10:56:06;;;;;;;7.30;2.05;;;;;;;23.53;70.10;100419.84;5079736;28;20428;-69
2022/10/26 10:58:41;;;;;;;6.10;2.03;;;;;;;23.46;71.69;100407.75;5079814;28;20135;-70
2022/10/26 11:01:13;;;;;;;6.68;2.13;;;;;;;23.43;73.26;100412.44;5077535;28;20028;-70
2022/10/26 11:03:48;;;;;;;4.40;1.52;;;;;;;23.32;72.38;100412.41;5075512;28;20035;-70
2022/10/26 11:06:27;;;;;;;7.35;1.73;;;;;;;23.27;72.24;100419.19;5076778;28;20650;-69
2022/10/26 11:09:15;;;;;;;13.15;4.25;;;;;;;23.34;73.92;100410.44;5079212;28;20020;-70
2022/10/26 11:11:49;;;;;;;6.18;1.75;;;;;;;23.17;73.36;100415.44;5075081;28;20024;-69
2022/10/26 11:14:22;;;;;;;8.63;2.63;;;;;;;23.18;74.69;100418.03;5078272;28;20467;-70
2022/10/26 11:17:01;;;;;;;8.88;2.08;;;;;;;23.14;75.07;100421.97;5076374;28;20028;-69
2022/10/26 11:19:41;;;;;;;6.00;2.03;;;;;;;23.33;74.98;100414.13;5075740;28;20703;-69
2022/10/26 11:22:12;;;;;;;5.20;1.65;;;;;;;23.45;75.26;100415.03;5080322;28;20043;-70
2022/10/26 11:24:44;;;;;;;5.78;1.77;;;;;;;23.38;73.85;100387.50;5075951;28;20488;-69
2022/10/26 11:27:30;;;;;;;7.35;1.50;;;;;;;23.54;73.14;100416.16;5080990;28;20072;-69
2022/10/26 11:30:17;;;;;;;7.63;1.85;;;;;;;23.73;73.56;100417.28;5076080;28;20705;-68
2022/10/26 11:32:48;;;;;;;7.35;1.80;;;;;;;23.98;72.88;100419.78;5077194;28;20114;-70
2022/10/26 11:35:27;;;;;;;8.55;1.80;;;;;;;24.75;69.09;100410.59;5074695;28;20387;-70
2022/10/26 11:38:16;;;;;;;7.97;1.77;;;;;;;25.07;67.81;100411.44;5075455;28;20483;-71